Time;durP1;ratioP1;P1;durP2;ratioP2;P2;SDS_P1;SDS_P2;PMS_P1;PMS_P2;Temp;Humidity;BMP_temperature;BMP_pressure;BME280_temperature;BME280_humidity;BME280_pressure;Samples;Min_cycle;Max_cycle;Signal;HPM_P1;HPM_P2
2021/05/03 00:02:14;;;;;;;4.13;1.73;;;12.00;88.90;;;;;;5051628;28;20068;-63
2021/05/03 00:04:40;;;;;;;3.70;1.83;;;12.00;88.70;;;;;;5050641;28;20053;-63
2021/05/03 00:07:07;;;;;;;4.60;2.25;;;12.10;88.50;;;;;;5020671;28;20052;-63
2021/05/03 00:09:35;;;;;;;4.60;2.10;;;12.00;88.60;;;;;;5048493;28;20045;-63
2021/05/03 00:12:01;;;;;;;3.83;1.80;;;12.00;88.90;;;;;;5050125;28;20449;-64
2021/05/03 00:14:28;;;;;;;3.95;2.40;;;12.00;89.30;;;;;;5049627;28;20400;-63
2021/05/03 00:16:54;;;;;;;4.65;2.47;;;12.00;89.10;;;;;;5051223;28;20502;-63
2021/05/03 00:19:21;;;;;;;4.97;2.97;;;11.90;88.70;;;;;;5051438;28;20123;-63
2021/05/03 00:21:48;;;;;;;4.00;2.28;;;11.90;89.10;;;;;;5029562;28;20045;-63
2021/05/03 00:24:14;;;;;;;4.93;2.63;;;11.80;89.00;;;;;;5023943;28;20569;-63
2021/05/03 00:26:41;;;;;;;4.78;2.88;;;11.70;89.30;;;;;;5045580;28;20052;-63
2021/05/03 00:29:08;;;;;;;3.95;2.50;;;11.70;89.50;;;;;;5049709;28;20059;-63
2021/05/03 00:31:35;;;;;;;4.15;2.38;;;11.80;89.10;;;;;;5051974;28;20049;-63
2021/05/03 00:34:03;;;;;;;6.22;3.13;;;11.70;89.10;;;;;;5049996;28;20076;-63
2021/05/03 00:36:29;;;;;;;6.95;2.92;;;11.80;88.50;;;;;;5030038;28;20057;-63
2021/05/03 00:38:56;;;;;;;5.57;2.60;;;11.80;89.00;;;;;;5032888;28;20098;-63
2021/05/03 00:41:22;;;;;;;5.88;3.05;;;11.80;88.40;;;;;;5051642;28;20509;-63
2021/05/03 00:43:50;;;;;;;6.30;3.58;;;11.80;88.30;;;;;;5032141;28;20106;-63
2021/05/03 00:46:19;;;;;;;9.43;3.70;;;11.80;88.40;;;;;;5028683;28;20550;-63
2021/05/03 00:48:46;;;;;;;6.47;3.17;;;11.80;88.60;;;;;;5051734;28;20060;-63
2021/05/03 00:51:13;;;;;;;6.25;3.05;;;11.80;88.30;;;;;;5054811;28;20395;-63
2021/05/03 00:53:40;;;;;;;5.85;3.33;;;11.70;89.20;;;;;;5050859;28;20049;-63
2021/05/03 00:56:07;;;;;;;6.32;3.00;;;11.70;89.40;;;;;;5031529;28;20045;-63
2021/05/03 00:58:34;;;;;;;6.93;3.25;;;11.80;90.00;;;;;;5027780;28;20493;-63
2021/05/03 01:01:03;;;;;;;6.72;3.38;;;11.80;88.90;;;;;;5050602;28;20041;-63
2021/05/03 01:03:29;;;;;;;6.15;2.95;;;11.80;88.60;;;;;;5032927;28;20564;-63
2021/05/03 01:05:56;;;;;;;7.13;3.17;;;11.80;88.50;;;;;;5017309;28;20052;-63
2021/05/03 01:08:22;;;;;;;5.53;3.33;;;11.70;88.60;;;;;;5034136;28;20049;-63
2021/05/03 01:10:48;;;;;;;7.05;3.40;;;11.70;88.20;;;;;;5032274;28;20064;-63
2021/05/03 01:13:15;;;;;;;6.72;3.72;;;11.70;88.40;;;;;;5030595;28;20053;-63
2021/05/03 01:15:42;;;;;;;6.68;3.30;;;11.80;88.20;;;;;;5049577;28;20047;-63
2021/05/03 01:18:09;;;;;;;7.28;4.20;;;11.80;87.70;;;;;;5047173;28;20037;-63
2021/05/03 01:20:37;;;;;;;6.35;3.28;;;11.70;86.90;;;;;;5035554;28;20466;-64
2021/05/03 01:23:05;;;;;;;8.07;3.90;;;11.70;87.20;;;;;;5052990;28;20048;-63
2021/05/03 01:25:37;;;;;;;7.63;3.80;;;11.70;88.20;;;;;;5033175;28;20053;-63
2021/05/03 01:28:05;;;;;;;7.20;3.63;;;11.70;86.80;;;;;;5047201;28;20052;-63
2021/05/03 01:30:38;;;;;;;6.53;3.65;;;11.80;86.20;;;;;;5055105;28;20482;-63
2021/05/03 01:33:06;;;;;;;8.48;3.83;;;11.70;86.40;;;;;;5022611;28;20052;-63
2021/05/03 01:35:34;;;;;;;5.97;3.35;;;11.80;85.90;;;;;;5053587;28;20455;-63
2021/05/03 01:38:02;;;;;;;6.55;3.40;;;11.80;85.90;;;;;;5052184;28;20095;-63
2021/05/03 01:40:30;;;;;;;7.47;3.78;;;11.90;85.70;;;;;;5052870;28;20037;-63
2021/05/03 01:42:57;;;;;;;7.90;4.18;;;11.80;86.30;;;;;;5053106;28;20496;-63
2021/05/03 01:45:26;;;;;;;9.02;4.40;;;11.80;85.80;;;;;;5035250;28;20084;-63
2021/05/03 01:47:54;;;;;;;8.27;4.10;;;11.70;85.90;;;;;;5052002;28;20432;-63
2021/05/03 01:50:22;;;;;;;7.82;4.25;;;11.70;86.20;;;;;;5037849;28;20049;-63
2021/05/03 01:52:50;;;;;;;7.80;4.88;;;11.80;85.70;;;;;;5053172;28;20056;-63
2021/05/03 01:55:18;;;;;;;8.38;4.20;;;11.80;86.00;;;;;;5052716;28;20519;-63
2021/05/03 01:57:46;;;;;;;9.27;4.43;;;11.70;86.10;;;;;;5035746;28;20041;-63
2021/05/03 02:00:13;;;;;;;8.57;4.60;;;11.70;86.60;;;;;;5032599;28;20449;-63
2021/05/03 02:02:45;;;;;;;9.00;4.60;;;11.70;86.50;;;;;;5034632;28;20049;-63
2021/05/03 02:05:20;;;;;;;8.57;4.25;;;11.70;86.80;;;;;;5051024;28;20488;-63
2021/05/03 02:08:03;;;;;;;6.78;3.90;;;11.70;85.30;;;;;;5034555;28;20049;-63
2021/05/03 02:10:32;;;;;;;7.93;4.00;;;11.80;85.30;;;;;;5049759;28;20045;-63
2021/05/03 02:12:59;;;;;;;6.88;4.03;;;11.70;85.30;;;;;;5049263;28;20053;-63
2021/05/03 02:15:27;;;;;;;6.95;4.18;;;11.70;84.50;;;;;;5052575;28;20057;-63
2021/05/03 02:17:54;;;;;;;7.35;3.92;;;11.60;84.60;;;;;;5048485;28;20067;-63
2021/05/03 02:20:21;;;;;;;6.97;4.07;;;11.70;84.50;;;;;;5052283;28;20056;-63
2021/05/03 02:22:48;;;;;;;7.93;4.05;;;11.70;83.90;;;;;;5051726;28;20435;-63
2021/05/03 02:25:15;;;;;;;7.05;3.55;;;11.60;83.90;;;;;;5036079;28;20057;-63
2021/05/03 02:27:47;;;;;;;8.88;3.75;;;11.50;84.90;;;;;;5052292;28;20057;-63
2021/05/03 02:30:16;;;;;;;7.75;4.13;;;11.50;84.70;;;;;;5053630;28;20454;-63
2021/05/03 02:32:45;;;;;;;8.15;4.38;;;11.60;85.20;;;;;;5052273;28;20052;-64
2021/05/03 02:35:18;;;;;;;9.25;4.18;;;11.60;85.20;;;;;;5050956;28;20076;-63
2021/05/03 02:37:47;;;;;;;7.22;3.72;;;11.50;85.40;;;;;;5034661;28;20590;-63
2021/05/03 02:40:15;;;;;;;5.65;3.50;;;11.50;84.50;;;;;;5032684;28;20053;-63
2021/05/03 02:42:45;;;;;;;7.97;4.47;;;11.50;83.70;;;;;;5051671;28;20053;-63
2021/05/03 02:45:13;;;;;;;8.75;4.20;;;11.40;84.40;;;;;;5034175;28;20044;-63
2021/05/03 02:47:40;;;;;;;5.22;3.15;;;11.40;83.90;;;;;;5056235;28;20061;-63
2021/05/03 02:50:08;;;;;;;6.43;3.38;;;11.40;83.50;;;;;;5051570;28;20048;-63
2021/05/03 02:52:34;;;;;;;6.82;3.53;;;11.50;83.20;;;;;;5029061;28;20111;-63
2021/05/03 02:55:02;;;;;;;6.50;3.70;;;11.50;83.00;;;;;;5044333;28;20060;-63
2021/05/03 02:57:29;;;;;;;4.93;2.97;;;11.40;82.60;;;;;;5052559;28;20045;-63
2021/05/03 02:59:55;;;;;;;6.28;3.75;;;11.40;82.20;;;;;;5051547;28;20044;-63
2021/05/03 03:02:22;;;;;;;12.27;3.97;;;11.40;82.00;;;;;;5018605;28;20056;-63
2021/05/03 03:04:48;;;;;;;5.55;3.10;;;11.20;81.00;;;;;;5053324;28;20061;-63
2021/05/03 03:07:15;;;;;;;5.82;3.13;;;11.20;81.10;;;;;;5051235;28;20053;-63
2021/05/03 03:09:42;;;;;;;5.10;2.63;;;11.20;81.20;;;;;;5032821;28;20499;-63
2021/05/03 03:12:10;;;;;;;6.63;3.50;;;11.20;81.40;;;;;;5032965;28;20048;-63
2021/05/03 03:14:37;;;;;;;5.25;3.15;;;11.10;79.90;;;;;;5034280;28;20048;-63
2021/05/03 03:17:04;;;;;;;4.30;2.42;;;11.20;79.10;;;;;;5050843;28;20098;-63
2021/05/03 03:19:31;;;;;;;8.85;2.13;;;11.00;78.80;;;;;;5033343;28;20056;-63
2021/05/03 03:21:57;;;;;;;5.35;2.42;;;11.10;78.10;;;;;;5050570;28;20072;-63
2021/05/03 03:24:24;;;;;;;6.25;2.55;;;11.00;77.20;;;;;;5051486;28;20053;-63
2021/05/03 03:26:50;;;;;;;4.97;2.47;;;11.10;76.50;;;;;;5031759;28;20052;-64
2021/05/03 03:29:17;;;;;;;4.85;2.42;;;11.10;76.10;;;;;;5045942;28;20492;-63
2021/05/03 03:31:43;;;;;;;4.30;2.28;;;11.00;76.00;;;;;;5050414;28;20053;-63
2021/05/03 03:34:10;;;;;;;5.72;2.55;;;10.90;76.60;;;;;;5051557;28;20053;-63
2021/05/03 03:36:36;;;;;;;6.65;2.40;;;11.00;76.70;;;;;;5032488;28;20106;-63
2021/05/03 03:39:05;;;;;;;3.45;1.70;;;11.00;77.00;;;;;;5031887;28;20053;-63
2021/05/03 03:41:33;;;;;;;6.80;2.97;;;11.00;76.80;;;;;;5033690;28;20053;-63
2021/05/03 03:44:00;;;;;;;5.07;2.53;;;11.00;77.20;;;;;;5050545;28;20499;-63
2021/05/03 03:46:26;;;;;;;6.43;3.15;;;11.00;77.30;;;;;;5049503;28;20370;-63
2021/05/03 03:48:53;;;;;;;5.57;2.80;;;11.00;77.30;;;;;;5052477;28;20049;-63
2021/05/03 03:51:19;;;;;;;6.30;2.40;;;10.90;76.70;;;;;;5034945;28;20395;-63
2021/05/03 03:53:46;;;;;;;6.18;2.53;;;10.90;76.90;;;;;;5052610;28;20060;-63
2021/05/03 03:56:13;;;;;;;4.20;2.17;;;10.90;76.60;;;;;;5051897;28;20055;-63
2021/05/03 03:58:44;;;;;;;6.28;2.30;;;10.90;76.70;;;;;;5031779;28;20059;-63
2021/05/03 04:01:12;;;;;;;4.75;2.40;;;10.90;76.90;;;;;;5050615;28;20044;-63
2021/05/03 04:03:46;;;;;;;4.43;2.58;;;11.00;77.20;;;;;;5032220;28;20144;-63
2021/05/03 04:06:25;;;;;;;5.25;2.00;;;10.90;76.60;;;;;;5050863;28;20523;-63
2021/05/03 04:14:26;;;;;;;5.75;2.08;;;10.90;75.80;;;;;;5035528;28;20452;-61
2021/05/03 04:27:42;;;;;;;4.82;2.28;;;10.90;75.60;;;;;;5051906;28;20057;-61
2021/05/03 04:30:10;;;;;;;5.85;2.17;;;11.00;75.50;;;;;;5049081;28;20641;-61
2021/05/03 04:32:37;;;;;;;4.75;1.75;;;11.00;75.60;;;;;;5049485;28;20064;-61
2021/05/03 04:35:05;;;;;;;5.47;2.50;;;10.90;75.00;;;;;;5050766;28;20037;-61
2021/05/03 04:37:31;;;;;;;7.18;2.28;;;10.90;74.90;;;;;;5032849;28;20044;-61
2021/05/03 04:39:58;;;;;;;4.60;1.83;;;11.00;74.90;;;;;;5032086;28;20063;-61
2021/05/03 04:42:24;;;;;;;4.25;1.90;;;11.00;74.30;;;;;;5048584;28;20068;-61
2021/05/03 04:44:51;;;;;;;4.18;2.40;;;11.00;74.50;;;;;;5022958;28;20062;-61
2021/05/03 04:47:18;;;;;;;6.72;2.47;;;11.00;75.30;;;;;;5031213;28;20053;-61
2021/05/03 04:49:44;;;;;;;7.82;2.60;;;11.10;75.90;;;;;;5050705;28;20500;-61
2021/05/03 04:52:11;;;;;;;4.85;2.33;;;11.00;75.60;;;;;;5049518;28;20045;-61
2021/05/03 04:54:37;;;;;;;5.75;2.60;;;11.10;75.70;;;;;;5016672;28;20048;-61
2021/05/03 04:57:04;;;;;;;5.40;2.58;;;11.00;75.50;;;;;;5047172;28;20447;-62
2021/05/03 04:59:30;;;;;;;5.95;2.85;;;11.10;76.20;;;;;;5048284;28;20060;-61
2021/05/03 05:01:57;;;;;;;5.47;3.00;;;11.00;76.20;;;;;;5027077;28;20100;-61
2021/05/03 05:04:23;;;;;;;5.85;2.75;;;11.10;76.40;;;;;;5018912;28;20061;-63
2021/05/03 05:06:52;;;;;;;7.05;2.95;;;11.10;75.70;;;;;;5022142;28;20099;-63
2021/05/03 05:09:18;;;;;;;9.75;3.15;;;11.10;75.70;;;;;;5022524;28;20049;-63
2021/05/03 05:11:44;;;;;;;6.00;2.65;;;11.00;76.70;;;;;;5045514;28;20048;-63
2021/05/03 05:14:11;;;;;;;7.07;3.63;;;11.10;76.80;;;;;;5049577;28;20049;-63
2021/05/03 05:16:38;;;;;;;5.47;2.78;;;11.10;77.40;;;;;;5046617;28;20669;-63
2021/05/03 05:19:05;;;;;;;6.03;2.75;;;11.20;78.00;;;;;;5026803;28;20124;-63
2021/05/03 05:21:34;;;;;;;7.68;3.60;;;11.10;78.50;;;;;;5042816;28;20053;-63
2021/05/03 05:24:01;;;;;;;7.97;3.38;;;11.20;78.80;;;;;;5048045;28;20053;-63
2021/05/03 05:26:27;;;;;;;7.10;3.33;;;11.20;79.00;;;;;;5012572;28;20136;-63
2021/05/03 05:28:54;;;;;;;5.53;3.22;;;11.30;78.80;;;;;;5029059;28;20049;-63
2021/05/03 05:31:21;;;;;;;7.03;3.33;;;11.20;78.90;;;;;;5048306;28;20442;-63
2021/05/03 05:33:48;;;;;;;7.15;3.38;;;11.20;79.00;;;;;;5028538;28;20594;-63
2021/05/03 05:36:14;;;;;;;7.95;2.92;;;11.30;79.60;;;;;;5031525;28;20057;-63
2021/05/03 05:38:41;;;;;;;5.05;2.85;;;11.20;78.30;;;;;;5029114;28;20052;-63
2021/05/03 05:41:09;;;;;;;6.38;3.00;;;11.30;79.30;;;;;;5032153;28;20491;-63
2021/05/03 05:43:36;;;;;;;6.35;3.22;;;11.30;78.90;;;;;;5031136;28;20052;-63
2021/05/03 05:46:03;;;;;;;6.20;2.92;;;11.40;78.10;;;;;;5050335;28;20110;-63
2021/05/03 05:48:29;;;;;;;6.55;3.13;;;11.40;78.80;;;;;;5049670;28;20052;-63
2021/05/03 05:50:56;;;;;;;5.35;2.80;;;11.40;78.40;;;;;;5047592;28;20057;-63
2021/05/03 05:53:22;;;;;;;6.18;2.97;;;11.50;78.60;;;;;;5048805;28;20044;-63
2021/05/03 05:55:49;;;;;;;6.30;2.95;;;11.50;79.20;;;;;;5048252;28;20045;-63
2021/05/03 05:58:17;;;;;;;6.70;2.85;;;11.60;78.70;;;;;;5048006;28;20135;-63
2021/05/03 06:00:43;;;;;;;4.88;2.20;;;11.60;77.30;;;;;;5047910;28;20111;-63
2021/05/03 06:03:10;;;;;;;8.02;2.67;;;11.50;76.50;;;;;;5050047;28;20057;-63
2021/05/03 06:05:36;;;;;;;4.28;2.33;;;11.40;76.20;;;;;;5026094;28;20053;-63
2021/05/03 06:08:04;;;;;;;6.70;2.83;;;11.40;75.30;;;;;;5009628;28;20059;-63
2021/05/03 06:10:30;;;;;;;5.30;2.10;;;11.50;76.30;;;;;;5038825;28;20573;-63
2021/05/03 06:12:57;;;;;;;4.57;2.63;;;11.60;74.60;;;;;;5052813;28;20049;-63
2021/05/03 06:15:23;;;;;;;7.45;2.75;;;11.60;73.90;;;;;;5052060;28;20056;-63
2021/05/03 06:17:50;;;;;;;4.22;2.28;;;11.70;75.00;;;;;;5033734;28;20056;-63
2021/05/03 06:20:17;;;;;;;5.43;2.50;;;11.80;74.00;;;;;;5052573;28;20045;-63
2021/05/03 06:22:44;;;;;;;5.72;2.90;;;11.90;73.10;;;;;;5033252;28;20059;-63
2021/05/03 06:25:11;;;;;;;7.40;2.67;;;11.80;73.60;;;;;;5050411;28;20045;-63
2021/05/03 06:27:37;;;;;;;5.78;2.83;;;11.90;73.90;;;;;;5051141;28;20439;-64
2021/05/03 06:30:05;;;;;;;5.45;2.50;;;11.90;73.00;;;;;;5033641;28;20049;-64
2021/05/03 06:32:31;;;;;;;10.77;2.50;;;11.90;72.10;;;;;;5047186;28;20057;-64
2021/05/03 06:34:58;;;;;;;4.25;2.33;;;12.00;72.40;;;;;;5050929;28;20051;-64
2021/05/03 06:37:24;;;;;;;11.90;3.85;;;12.10;72.90;;;;;;5054765;28;20041;-64
2021/05/03 06:39:51;;;;;;;6.50;2.85;;;12.30;72.40;;;;;;5037329;28;20057;-64
2021/05/03 06:42:17;;;;;;;5.55;2.40;;;12.30;71.70;;;;;;5031243;28;20516;-64
2021/05/03 06:44:44;;;;;;;6.28;2.30;;;12.40;70.70;;;;;;5045557;28;20064;-64
2021/05/03 06:47:14;;;;;;;4.10;2.38;;;12.30;71.20;;;;;;5015489;28;20061;-64
2021/05/03 06:49:41;;;;;;;5.95;2.83;;;12.30;70.10;;;;;;5034035;28;20528;-64
2021/05/03 06:52:07;;;;;;;4.35;2.28;;;12.30;70.20;;;;;;5051701;28;20435;-64
2021/05/03 06:54:35;;;;;;;7.07;2.67;;;12.20;69.40;;;;;;5050783;28;20049;-63
2021/05/03 06:57:01;;;;;;;4.55;2.40;;;12.10;69.40;;;;;;5017051;28;20045;-63
2021/05/03 06:59:28;;;;;;;6.72;3.17;;;12.00;68.70;;;;;;5033932;28;20056;-63
2021/05/03 07:01:55;;;;;;;6.97;4.13;;;12.00;69.10;;;;;;5051033;28;20052;-63
2021/05/03 07:04:22;;;;;;;8.27;3.75;;;11.80;68.50;;;;;;5051138;28;20415;-63
2021/05/03 07:06:48;;;;;;;8.18;3.95;;;11.80;69.30;;;;;;5030268;28;20104;-63
2021/05/03 07:09:15;;;;;;;8.32;3.75;;;11.90;70.40;;;;;;5046076;28;20049;-63
2021/05/03 07:11:42;;;;;;;11.20;4.47;;;12.00;69.60;;;;;;5050739;28;20083;-63
2021/05/03 07:14:09;;;;;;;5.25;2.85;;;11.90;68.10;;;;;;5050859;28;20045;-64
2021/05/03 07:16:35;;;;;;;5.50;2.60;;;12.00;69.60;;;;;;5029192;28;20573;-64
2021/05/03 07:19:02;;;;;;;7.25;2.75;;;12.00;69.80;;;;;;5047632;28;20060;-64
2021/05/03 07:21:29;;;;;;;5.93;2.58;;;12.20;69.90;;;;;;5048983;28;20060;-64
2021/05/03 07:23:57;;;;;;;5.80;2.90;;;12.20;69.60;;;;;;5051900;28;20057;-63
2021/05/03 07:26:23;;;;;;;6.18;3.03;;;12.40;70.10;;;;;;5030245;28;20064;-63
2021/05/03 07:28:50;;;;;;;5.43;2.88;;;12.50;68.60;;;;;;5047881;28;20060;-63
2021/05/03 07:31:16;;;;;;;5.15;2.15;;;12.50;67.90;;;;;;5050015;28;20400;-64
2021/05/03 07:33:43;;;;;;;5.93;3.10;;;12.40;65.40;;;;;;5021632;28;20050;-64
2021/05/03 07:36:09;;;;;;;5.90;2.78;;;12.40;67.40;;;;;;5037262;28;20044;-64
2021/05/03 07:38:36;;;;;;;6.38;2.83;;;12.30;66.20;;;;;;5051469;28;20399;-63
2021/05/03 07:41:04;;;;;;;6.07;2.85;;;12.40;67.10;;;;;;5050203;28;20071;-64
2021/05/03 07:43:31;;;;;;;5.50;1.77;;;12.60;65.70;;;;;;5048355;28;20048;-64
2021/05/03 07:46:01;;;;;;;9.90;2.28;;;12.60;63.30;;;;;;5045752;28;20060;-64
2021/05/03 07:48:28;;;;;;;3.70;1.83;;;12.70;64.00;;;;;;5031514;28;20057;-63
2021/05/03 07:50:55;;;;;;;3.05;1.35;;;12.70;61.40;;;;;;5030060;28;20136;-63
2021/05/03 07:53:21;;;;;;;3.38;1.30;;;12.90;63.50;;;;;;5031929;28;20400;-63
2021/05/03 07:55:48;;;;;;;3.97;1.77;;;13.10;61.40;;;;;;5049506;28;20095;-63
2021/05/03 07:58:14;;;;;;;4.95;1.35;;;13.10;60.10;;;;;;5031917;28;20045;-63
2021/05/03 08:00:41;;;;;;;3.67;1.88;;;13.20;59.10;;;;;;5031237;28;20140;-63
2021/05/03 08:03:07;;;;;;;2.88;1.25;;;13.30;60.50;;;;;;5049398;28;20061;-64
2021/05/03 08:05:34;;;;;;;4.25;1.98;;;13.20;59.90;;;;;;5030920;28;20136;-63
2021/05/03 08:08:01;;;;;;;8.02;1.77;;;13.20;60.70;;;;;;5046589;28;20073;-63
2021/05/03 08:10:28;;;;;;;2.72;1.30;;;13.20;63.00;;;;;;5046502;28;20057;-64
2021/05/03 08:12:55;;;;;;;3.47;0.63;;;13.40;56.80;;;;;;5050744;28;20080;-63
2021/05/03 08:15:23;;;;;;;3.45;1.60;;;13.30;56.10;;;;;;5027109;28;20096;-63
2021/05/03 08:17:50;;;;;;;8.02;0.80;;;13.30;54.90;;;;;;5028290;28;20510;-63
2021/05/03 08:20:18;;;;;;;3.70;0.88;;;13.20;55.00;;;;;;5032609;28;20052;-63
2021/05/03 08:22:46;;;;;;;2.00;0.73;;;13.20;56.40;;;;;;5049206;28;20049;-63
2021/05/03 08:25:13;;;;;;;3.15;0.80;;;13.20;56.40;;;;;;5017294;28;20061;-63
2021/05/03 08:27:40;;;;;;;2.80;0.60;;;13.40;56.10;;;;;;5023443;28;20057;-64
2021/05/03 08:30:08;;;;;;;3.22;0.88;;;13.40;55.60;;;;;;5045221;28;20091;-63
2021/05/03 08:32:35;;;;;;;5.07;1.02;;;13.70;54.40;;;;;;5054773;28;20051;-63
2021/05/03 08:35:04;;;;;;;5.63;1.20;;;13.40;53.20;;;;;;5051584;28;20059;-63
2021/05/03 08:37:31;;;;;;;3.75;1.13;;;13.30;55.30;;;;;;5049866;28;20060;-64
2021/05/03 08:39:57;;;;;;;3.30;0.65;;;13.40;56.10;;;;;;5049871;28;20048;-63
2021/05/03 08:42:24;;;;;;;3.30;0.57;;;13.50;53.40;;;;;;5027522;28;20065;-64
2021/05/03 08:44:52;;;;;;;18.30;1.33;;;13.80;52.60;;;;;;5051248;28;20045;-64
2021/05/03 08:47:20;;;;;;;9.07;0.80;;;13.90;51.90;;;;;;5012930;28;20092;-64
2021/05/03 08:52:58;;;;;;;13.80;1.67;;;14.10;52.00;;;;;;5035047;28;20052;-63
2021/05/03 08:55:04;;;;;;;4.47;0.50;;;14.10;50.80;;;;;;5037930;28;20057;-63
2021/05/03 08:57:31;;;;;;;2.53;0.70;;;14.20;51.00;;;;;;5028799;28;20041;-64
2021/05/03 08:59:57;;;;;;;1.83;0.60;;;13.90;51.40;;;;;;5046338;28;20068;-64
2021/05/03 09:02:25;;;;;;;2.90;0.95;;;13.90;50.70;;;;;;5049061;28;20505;-65
2021/05/03 09:04:51;;;;;;;3.85;0.88;;;14.10;51.70;;;;;;5030542;28;20063;-62
2021/05/03 09:07:18;;;;;;;2.45;1.00;;;14.20;50.40;;;;;;5040689;28;20045;-63
2021/05/03 09:09:52;;;;;;;3.15;0.60;;;14.30;51.40;;;;;;5033099;28;20103;-63
2021/05/03 09:12:21;;;;;;;3.03;0.50;;;14.50;51.30;;;;;;5042073;28;20456;-64
2021/05/03 09:15:00;;;;;;;2.25;0.70;;;14.70;52.90;;;;;;5043280;28;20051;-64
2021/05/03 09:17:38;;;;;;;5.10;0.52;;;15.00;51.60;;;;;;5039329;28;20053;-63
2021/05/03 09:20:15;;;;;;;1.88;0.60;;;14.80;48.70;;;;;;5026481;28;20067;-63
2021/05/03 09:22:52;;;;;;;4.68;0.50;;;14.90;48.10;;;;;;5045961;28;20048;-64
2021/05/03 09:25:50;;;;;;;8.50;1.17;;;15.20;49.40;;;;;;5022293;28;20408;-65
2021/05/03 09:28:19;;;;;;;5.32;0.30;;;15.30;47.40;;;;;;5024342;28;20083;-65
2021/05/03 09:30:55;;;;;;;4.65;0.63;;;15.20;47.20;;;;;;5028352;28;20052;-65
2021/05/03 09:33:29;;;;;;;2.97;0.40;;;15.30;48.20;;;;;;5040762;28;20103;-65
2021/05/03 09:35:57;;;;;;;2.70;0.52;;;15.30;48.20;;;;;;5027385;28;20407;-63
2021/05/03 09:38:46;;;;;;;3.72;0.60;;;15.30;47.90;;;;;;5031710;28;20056;-63
2021/05/03 09:41:27;;;;;;;2.67;0.35;;;15.10;47.60;;;;;;5048175;28;20061;-64
2021/05/03 09:43:55;;;;;;;2.05;0.80;;;15.10;49.40;;;;;;5050866;28;20765;-63
2021/05/03 09:46:27;;;;;;;5.80;0.70;;;15.20;48.20;;;;;;5027410;28;20061;-63
2021/05/03 09:48:55;;;;;;;2.63;0.77;;;15.00;47.90;;;;;;5016306;28;20664;-62
2021/05/03 09:51:32;;;;;;;2.83;0.63;;;15.10;49.60;;;;;;5048726;28;20730;-62
2021/05/03 09:54:04;;;;;;;5.85;0.77;;;15.20;49.50;;;;;;5025699;28;20049;-63
2021/05/03 09:56:47;;;;;;;2.42;0.68;;;15.40;49.20;;;;;;5029411;28;20507;-63
2021/05/03 09:59:30;;;;;;;2.72;0.80;;;15.60;48.70;;;;;;5042019;28;20119;-63
2021/05/03 10:02:19;;;;;;;1.90;0.40;;;15.50;46.20;;;;;;5025776;28;20048;-63
2021/05/03 10:05:02;;;;;;;1.90;0.77;;;15.70;47.30;;;;;;5022104;28;20641;-63
2021/05/03 10:07:30;;;;;;;2.33;0.70;;;15.70;46.10;;;;;;5043140;28;20071;-63
2021/05/03 10:10:04;;;;;;;1.58;0.57;;;15.90;46.80;;;;;;5047103;28;20052;-64
2021/05/03 10:12:31;;;;;;;1.98;0.50;;;16.00;43.40;;;;;;5023745;28;20049;-63
2021/05/03 10:15:02;;;;;;;1.33;0.57;;;16.20;45.10;;;;;;5047611;28;20060;-64
2021/05/03 10:17:31;;;;;;;2.63;0.70;;;16.50;46.00;;;;;;5025137;28;20884;-63
2021/05/03 10:20:00;;;;;;;3.28;0.82;;;16.60;45.60;;;;;;5043713;28;20056;-64
2021/05/03 10:22:29;;;;;;;2.65;0.70;;;16.30;43.70;;;;;;5045893;28;20475;-64
2021/05/03 10:25:00;;;;;;;0.85;0.50;;;16.50;45.40;;;;;;5043265;28;20049;-63
2021/05/03 10:27:27;;;;;;;2.08;0.70;;;16.70;42.90;;;;;;5030760;28;20542;-63
2021/05/03 10:30:16;;;;;;;1.63;0.40;;;16.60;43.10;;;;;;5056587;28;20061;-63
2021/05/03 10:32:57;;;;;;;1.73;0.60;;;16.90;43.50;;;;;;5027568;28;20053;-64
2021/05/03 10:35:29;;;;;;;1.90;0.65;;;17.20;43.50;;;;;;5046044;28;20059;-63
2021/05/03 10:37:57;;;;;;;1.50;0.65;;;17.30;43.20;;;;;;5019671;28;20049;-63
2021/05/03 10:40:23;;;;;;;1.95;0.57;;;17.30;43.40;;;;;;5043715;28;20049;-63
2021/05/03 10:43:02;;;;;;;4.05;0.90;;;17.10;43.60;;;;;;5030287;28;20060;-63
2021/05/03 10:48:48;;;;;;;2.72;0.90;;;17.00;43.60;;;;;;5043776;28;20052;-63
2021/05/03 10:51:39;;;;;;;3.13;1.08;;;16.70;41.90;;;;;;5046895;28;20071;-62
2021/05/03 10:56:59;;;;;;;3.63;0.75;;;16.90;43.70;;;;;;5040787;28;20136;-63
2021/05/03 10:59:26;;;;;;;3.83;0.70;;;17.20;44.30;;;;;;5050778;28;20052;-63
2021/05/03 11:01:56;;;;;;;1.98;0.57;;;17.50;42.70;;;;;;5031195;28;20045;-63
2021/05/03 11:04:24;;;;;;;1.73;0.70;;;17.50;42.20;;;;;;5047570;28;20462;-63
2021/05/03 11:06:50;;;;;;;2.67;1.08;;;17.20;41.80;;;;;;5018277;28;20049;-63
2021/05/03 11:09:35;;;;;;;13.85;1.00;;;16.90;42.10;;;;;;5026507;28;20050;-63
2021/05/03 11:12:22;;;;;;;1.85;0.75;;;16.20;41.70;;;;;;5042358;28;20073;-65
2021/05/03 11:15:25;;;;;;;4.38;0.70;;;16.20;43.80;;;;;;5042582;28;21288;-63
2021/05/03 11:18:14;;;;;;;16.10;3.53;;;16.30;43.80;;;;;;5034862;28;20145;-63
2021/05/03 11:21:01;;;;;;;7.28;2.10;;;16.50;43.30;;;;;;5033518;28;20049;-63
2021/05/03 11:23:30;;;;;;;6.40;1.95;;;16.30;43.50;;;;;;5012057;28;20053;-64
2021/05/03 11:25:57;;;;;;;2.83;1.20;;;16.20;43.00;;;;;;5040141;28;20049;-62
2021/05/03 11:28:30;;;;;;;1.15;0.65;;;16.00;43.70;;;;;;5026885;28;20107;-63
2021/05/03 11:31:01;;;;;;;;;;;16.20;44.50;;;;;;5044818;28;20056;-61
2021/05/03 11:33:35;;;;;;;1.33;0.75;;;16.40;44.10;;;;;;5048350;28;19928;-61
2021/05/03 11:36:21;;;;;;;1.48;0.50;;;16.70;42.40;;;;;;5045672;28;20043;-61
2021/05/03 11:38:58;;;;;;;1.88;0.75;;;16.80;43.00;;;;;;5043424;28;20067;-61
2021/05/03 11:44:19;;;;;;;3.65;0.65;;;16.90;41.10;;;;;;5045531;28;20392;-61
2021/05/03 11:46:46;;;;;;;2.28;0.43;;;17.00;42.50;;;;;;5041674;28;20052;-62
2021/05/03 11:49:13;;;;;;;4.38;1.00;;;17.20;42.40;;;;;;5017855;28;20059;-63
2021/05/03 11:51:44;;;;;;;1.70;0.75;;;16.80;41.40;;;;;;5034877;28;20049;-61
2021/05/03 11:54:37;;;;;;;12.20;0.60;;;16.50;42.20;;;;;;5030323;28;20049;-61
2021/05/03 11:57:08;;;;;;;2.08;0.50;;;16.20;42.40;;;;;;5047771;28;20517;-62
2021/05/03 11:59:36;;;;;;;1.55;0.50;;;16.20;42.30;;;;;;5047144;28;20051;-62
2021/05/03 12:02:04;;;;;;;2.65;0.57;;;16.40;42.40;;;;;;5029110;28;20061;-62
2021/05/03 12:04:35;;;;;;;5.10;1.83;;;16.20;41.10;;;;;;5047246;28;20053;-61
2021/05/03 12:07:23;;;;;;;1.50;0.63;;;16.10;41.60;;;;;;5044462;28;20049;-61
2021/05/03 12:10:11;;;;;;;1.90;0.80;;;16.20;43.10;;;;;;5046409;28;20045;-61
2021/05/03 12:12:42;;;;;;;6.80;0.95;;;16.20;41.20;;;;;;5031219;28;20049;-62
2021/05/03 12:15:19;;;;;;;2.85;1.20;;;16.70;41.20;;;;;;5028763;28;20068;-62
2021/05/03 12:17:46;;;;;;;5.05;1.52;;;17.10;40.50;;;;;;5043348;28;20056;-62
2021/05/03 12:20:19;;;;;;;2.67;0.30;;;17.30;41.10;;;;;;5041545;28;20088;-63
2021/05/03 12:22:58;;;;;;;5.85;0.50;;;17.60;39.60;;;;;;5024430;28;20054;-61
2021/05/03 12:25:43;;;;;;;4.10;0.80;;;17.80;40.70;;;;;;5044780;28;20059;-61
2021/05/03 12:28:21;;;;;;;1.38;0.30;;;17.70;39.50;;;;;;5041471;28;20045;-62
2021/05/03 12:30:49;;;;;;;4.72;0.88;;;17.20;39.40;;;;;;5044976;28;20060;-62
2021/05/03 12:33:18;;;;;;;2.28;0.30;;;16.80;39.00;;;;;;5042924;28;20057;-62
2021/05/03 12:35:46;;;;;;;1.27;0.60;;;17.40;40.50;;;;;;5041255;28;20060;-62
2021/05/03 12:38:16;;;;;;;1.95;0.70;;;18.10;39.10;;;;;;5027480;28;20500;-61
2021/05/03 12:40:43;;;;;;;1.75;0.52;;;17.90;37.40;;;;;;5042252;28;20041;-61
2021/05/03 12:43:11;;;;;;;1.77;0.60;;;18.00;39.30;;;;;;5041782;28;20061;-61
2021/05/03 12:51:00;;;;;;;3.45;0.88;;;19.00;37.10;;;;;;5043415;28;20107;-61
2021/05/03 12:53:33;;;;;;;1.42;0.50;;;19.00;36.00;;;;;;5047370;28;20112;-61
2021/05/03 12:59:10;;;;;;;3.53;0.40;;;18.40;37.50;;;;;;5042092;28;20494;-61
2021/05/03 13:01:45;;;;;;;4.38;0.73;;;19.00;37.30;;;;;;5025405;28;20053;-62
2021/05/03 13:12:48;;;;;;;4.07;0.82;;;18.10;37.80;;;;;;5032505;28;20704;-61
2021/05/03 13:29:15;;;;;;;7.85;0.45;;;17.60;37.30;;;;;;5042211;28;20060;-61
2021/05/03 13:31:44;;;;;;;2.53;0.70;;;17.40;38.40;;;;;;5041495;28;20057;-61
2021/05/03 13:34:17;;;;;;;2.90;0.50;;;17.20;39.30;;;;;;5042162;28;20140;-61
2021/05/03 13:36:45;;;;;;;;;;;17.00;39.30;;;;;;5037855;28;20787;-62
2021/05/03 13:39:12;;;;;;;3.13;0.30;;;17.30;38.60;;;;;;5039161;28;19983;-61
2021/05/03 13:41:41;;;;;;;1.58;0.52;;;18.10;39.30;;;;;;5045033;28;20068;-61
2021/05/03 13:44:09;;;;;;;1.30;0.40;;;18.50;37.30;;;;;;5045067;28;20720;-62
2021/05/03 13:46:36;;;;;;;2.17;0.40;;;18.50;35.10;;;;;;5041598;28;20470;-62
2021/05/03 13:49:04;;;;;;;2.88;1.45;;;17.90;36.50;;;;;;5042701;28;20081;-62
2021/05/03 13:51:32;;;;;;;2.85;0.70;;;17.90;37.60;;;;;;5023154;28;20048;-63
2021/05/03 13:54:01;;;;;;;2.22;0.70;;;18.70;36.40;;;;;;5010846;28;20432;-63
2021/05/03 13:56:28;;;;;;;2.05;0.52;;;19.10;34.40;;;;;;5045405;28;20554;-63
2021/05/03 13:58:54;;;;;;;2.45;1.00;;;19.30;34.60;;;;;;5026100;28;20500;-62